메인 페이지
METAR-TAF:

METAR-TAF

공항 :

Santa Maria Public Airport (Capt G. Allan Hancock Field)

산타마리아, 캘리포니아, 미국

위도: 34-53-58N, 경도: 120-26-55W, 고도: 78m

현재 날씨관측

예보는 44분 전, 18:51시(UTC)에 발표되었습니다.
서북서5kt
온도 17°C
습도 82%
기압 1017 hPa
시정: 9.7km
고도 1000ft 상공 흐림
박무

METAR: KSMX 131851Z 30005KT 6SM BR OVC010 17/14 A3003 RMK AO2 SLP171 T01670144

시각: 12:35 (19:35 UTC)

예보

예보는 1 시간 15분 전, 18:20시(UTC)에 발표되었습니다.
예보 대상 시간: 13일 18시부터 14일 18시까지 (UTC)
여러 방향의 바람 3kt
시정: 10km
고도 1000ft 상공 흐림
13일 2000시부터 (UTC)
북서10kt
시정: 10km
고도 2000ft 상공 구름 보통
14일 0200시부터 (UTC)
북서6kt
시정: 10km
고도 600ft 상공 구름 많음
14일 0500시부터 (UTC)
여러 방향의 바람 3kt
시정: 3.2km
고도 400ft 상공 흐림
박무
14일 1700시부터 (UTC)
서북서3kt
시정: 8.0km
고도 500ft 상공 흐림
박무,

TAF: KSMX 131820Z 1318/1418 VRB03KT P6SM OVC010 FM132000 31010KT P6SM SCT020 FM140200 31006KT P6SM BKN006 FM140500 VRB03KT 2SM BR OVC004 FM141700 30003KT 5SM BR OVC005

4,000개 이상의 공항 관측 자료 및 예보 (METAR 및 TAF 보고).

지도상에서 검색 가능한 기상관측소가 노란 점과 빨간 점으로 표시되어 있습니다.

기상관측소 명을 보려면 표시 위로 마우스를 이동하세요.

날씨 관측과 예보를 보려면 클릭하세요.

지도 변경 : 확대하려면 엑스 표시가 있는 녹색 버튼, 축소하려면 빼기 표시가 있는 녹색 버튼, 다음 페이지의 지도를 보려면 녹색 화살표를 클릭하세요.


METAR-TAF: